createdAt,value
2023-12-10T00:02:23.903Z,1.17
2023-12-10T00:04:52.122Z,0.97
2023-12-10T00:07:19.574Z,0.77
2023-12-10T00:09:49.320Z,0.70
2023-12-10T00:12:16.913Z,0.97
2023-12-10T00:14:44.510Z,0.90
2023-12-10T00:17:17.551Z,0.93
2023-12-10T00:19:45.231Z,0.87
2023-12-10T00:22:13.019Z,0.40
2023-12-10T00:24:43.983Z,0.70
2023-12-10T00:27:12.899Z,0.57
2023-12-10T00:29:40.615Z,0.80
2023-12-10T00:32:15.960Z,0.77
2023-12-10T00:34:47.421Z,2.20
2023-12-10T00:37:15.414Z,2.60
2023-12-10T00:40:10.525Z,1.83
2023-12-10T00:42:43.255Z,2.63
2023-12-10T00:45:11.144Z,1.00
2023-12-10T00:47:38.983Z,1.07
2023-12-10T00:50:07.321Z,0.90
2023-12-10T00:52:41.788Z,2.27
2023-12-10T00:55:13.986Z,3.87
2023-12-10T00:57:42.841Z,3.57
2023-12-10T01:00:13.643Z,1.50
2023-12-10T01:02:42.314Z,0.77
2023-12-10T01:05:10.523Z,3.20
2023-12-10T01:07:38.189Z,1.63
2023-12-10T01:10:07.717Z,10.17
2023-12-10T01:12:37.701Z,3.10
2023-12-10T01:15:09.553Z,0.90
2023-12-10T01:17:37.338Z,0.63
2023-12-10T01:20:06.111Z,0.40
2023-12-10T01:22:34.181Z,0.20
2023-12-10T01:25:02.074Z,0.30
2023-12-10T01:27:30.426Z,0.27
2023-12-10T01:29:57.964Z,0.10
2023-12-10T01:32:27.094Z,0.30
2023-12-10T01:34:54.867Z,0.40
2023-12-10T01:37:22.416Z,0.10
2023-12-10T01:39:50.163Z,0.10
2023-12-10T01:42:18.369Z,0.20
2023-12-10T01:44:45.862Z,0.50
2023-12-10T01:47:14.310Z,0.10
2023-12-10T01:49:47.325Z,0.10
2023-12-10T01:52:15.432Z,1.33
2023-12-10T01:54:43.008Z,0.10
2023-12-10T01:57:11.311Z,0.10
2023-12-10T01:59:39.310Z,0.30
2023-12-10T02:02:08.770Z,0.17
2023-12-10T02:04:36.348Z,0.20
2023-12-10T02:07:06.220Z,0.23
2023-12-10T02:09:34.161Z,0.30
2023-12-10T02:12:02.401Z,0.20
2023-12-10T02:18:03.349Z,0.10
2023-12-10T02:20:31.862Z,0.47
2023-12-10T02:23:04.629Z,0.30
2023-12-10T02:25:37.073Z,0.30
2023-12-10T02:28:05.166Z,0.17
2023-12-10T02:30:34.010Z,0.40
2023-12-10T02:33:01.703Z,0.10
2023-12-10T02:35:29.244Z,0.30
2023-12-10T02:37:56.945Z,0.67
2023-12-10T02:40:24.375Z,0.17
2023-12-10T02:42:54.212Z,0.00
2023-12-10T02:45:21.927Z,0.40
2023-12-10T02:47:51.077Z,0.70
2023-12-10T02:50:19.246Z,0.63
2023-12-10T02:52:46.659Z,0.57
2023-12-10T02:55:14.851Z,0.30
2023-12-10T02:57:42.272Z,2.07
2023-12-10T03:00:13.048Z,2.20
2023-12-10T03:02:40.667Z,0.70
2023-12-10T03:05:08.503Z,1.47
2023-12-10T03:07:35.917Z,1.50
2023-12-10T03:10:04.094Z,0.80
2023-12-10T03:12:31.825Z,0.77
2023-12-10T03:14:59.664Z,1.80
2023-12-10T03:17:28.945Z,1.63
2023-12-10T03:19:56.783Z,0.77
2023-12-10T03:22:25.448Z,2.93
2023-12-10T03:24:53.081Z,0.93
2023-12-10T03:27:21.792Z,0.83
2023-12-10T03:29:49.856Z,2.23
2023-12-10T03:32:17.318Z,1.90
2023-12-10T03:34:46.288Z,1.60
2023-12-10T03:37:13.825Z,1.63
2023-12-10T03:39:41.321Z,2.20
2023-12-10T03:42:08.810Z,1.30
2023-12-10T03:44:37.120Z,1.33
2023-12-10T03:47:04.958Z,0.73
2023-12-10T03:49:32.531Z,1.40
2023-12-10T03:52:01.869Z,3.47
2023-12-10T03:54:29.429Z,1.07
2023-12-10T03:57:02.120Z,3.77
2023-12-10T03:59:30.611Z,1.30
2023-12-10T04:01:58.793Z,2.43
2023-12-10T04:04:26.783Z,3.10
2023-12-10T04:06:54.942Z,1.83
2023-12-10T04:09:23.758Z,4.27
2023-12-10T04:11:51.320Z,3.20
2023-12-10T04:14:22.460Z,3.00
2023-12-10T04:16:49.902Z,2.60
2023-12-10T04:19:17.586Z,6.53
2023-12-10T04:21:46.160Z,2.20
2023-12-10T04:24:13.657Z,3.20
2023-12-10T04:26:42.495Z,2.70
2023-12-10T04:29:10.794Z,4.83
2023-12-10T04:31:40.393Z,3.17
2023-12-10T04:34:08.016Z,4.40
2023-12-10T04:36:35.690Z,5.23
2023-12-10T04:39:03.919Z,2.27
2023-12-10T04:41:31.432Z,6.10
2023-12-10T04:44:00.243Z,5.80
2023-12-10T04:46:27.880Z,3.83
2023-12-10T04:48:55.417Z,1.83
2023-12-10T04:51:25.374Z,5.60
2023-12-10T04:53:53.001Z,4.30
2023-12-10T04:56:20.480Z,4.47
2023-12-10T04:58:48.390Z,5.63
2023-12-10T05:01:18.433Z,2.93
2023-12-10T05:03:46.013Z,4.57
2023-12-10T05:06:14.351Z,2.80
2023-12-10T05:08:41.892Z,5.13
2023-12-10T05:11:09.779Z,3.80
2023-12-10T05:13:37.204Z,2.07
2023-12-10T05:16:05.710Z,6.17
2023-12-10T05:18:34.707Z,4.03
2023-12-10T05:21:02.377Z,3.30
2023-12-10T05:23:30.167Z,4.90
2023-12-10T05:25:57.704Z,4.43
2023-12-10T05:28:25.824Z,2.47
2023-12-10T05:30:53.442Z,5.70
2023-12-10T05:33:21.024Z,2.67
2023-12-10T05:35:49.850Z,5.70
2023-12-10T05:38:17.286Z,4.13
2023-12-10T05:40:45.363Z,4.77
2023-12-10T05:43:12.860Z,5.87
2023-12-10T05:45:40.918Z,6.70
2023-12-10T05:48:08.835Z,6.43
2023-12-10T05:50:36.353Z,2.40
2023-12-10T05:53:05.779Z,5.10
2023-12-10T05:55:33.250Z,5.13
2023-12-10T05:58:00.718Z,8.23
2023-12-10T06:00:28.271Z,10.13
2023-12-10T06:02:55.836Z,4.30
2023-12-10T06:05:23.360Z,5.70
2023-12-10T06:07:50.823Z,11.00
2023-12-10T06:10:19.659Z,7.53
2023-12-10T06:12:47.782Z,7.27
2023-12-10T06:15:14.332Z,7.43
2023-12-10T06:17:41.940Z,8.23
2023-12-10T06:20:10.647Z,7.80
2023-12-10T06:22:38.107Z,3.40
2023-12-10T06:25:06.046Z,5.10
2023-12-10T06:27:34.862Z,6.23
2023-12-10T06:30:02.517Z,7.40
2023-12-10T06:32:31.681Z,3.93
2023-12-10T06:34:59.463Z,7.13
2023-12-10T06:37:27.002Z,4.63
2023-12-10T06:39:55.512Z,6.27
2023-12-10T06:42:24.156Z,3.53
2023-12-10T06:44:53.283Z,11.30
2023-12-10T06:47:21.096Z,5.40
2023-12-10T06:49:48.702Z,8.70
2023-12-10T06:52:16.855Z,9.83
2023-12-10T06:54:44.357Z,7.27
2023-12-10T06:57:12.890Z,5.70
2023-12-10T06:59:40.427Z,8.17
2023-12-10T07:02:09.236Z,7.00
2023-12-10T07:04:36.644Z,6.27
2023-12-10T07:07:04.460Z,12.80
2023-12-10T07:09:32.012Z,9.70
2023-12-10T07:11:59.555Z,7.53
2023-12-10T07:14:27.113Z,7.03
2023-12-10T07:16:55.065Z,11.07
2023-12-10T07:19:24.120Z,7.30
2023-12-10T07:21:53.917Z,8.93
2023-12-10T07:24:22.912Z,9.43
2023-12-10T07:26:51.197Z,8.97
2023-12-10T07:29:20.768Z,10.53
2023-12-10T07:31:48.334Z,8.07
2023-12-10T07:34:19.204Z,7.60
2023-12-10T07:36:50.551Z,7.00
2023-12-10T07:39:18.318Z,9.33
2023-12-10T07:41:45.808Z,8.53
2023-12-10T07:44:13.312Z,11.97
2023-12-10T07:46:41.890Z,13.63
2023-12-10T07:49:10.208Z,10.33
2023-12-10T07:51:41.771Z,9.13
2023-12-10T07:54:11.431Z,7.93
2023-12-10T07:56:39.025Z,11.90
2023-12-10T07:59:06.433Z,9.17
2023-12-10T08:01:33.992Z,8.73
2023-12-10T08:04:01.684Z,11.53
2023-12-10T08:06:29.286Z,9.27
2023-12-10T08:08:56.771Z,13.90
2023-12-10T08:11:26.410Z,10.33
2023-12-10T08:13:54.549Z,8.30
2023-12-10T08:16:23.104Z,7.93
2023-12-10T08:18:52.137Z,13.80
2023-12-10T08:21:20.245Z,11.80
2023-12-10T08:23:50.045Z,11.10
2023-12-10T08:26:17.549Z,6.13
2023-12-10T08:28:46.418Z,14.57
2023-12-10T08:31:14.424Z,11.33
2023-12-10T08:33:45.524Z,8.80
2023-12-10T08:36:13.746Z,15.33
2023-12-10T08:38:42.645Z,11.60
2023-12-10T08:41:10.814Z,11.57
2023-12-10T08:43:39.369Z,10.03
2023-12-10T08:46:09.329Z,11.23
2023-12-10T08:48:37.311Z,7.87
2023-12-10T08:51:08.809Z,9.70
2023-12-10T08:53:37.333Z,10.73
2023-12-10T08:56:08.332Z,9.30
2023-12-10T08:58:36.991Z,12.77
2023-12-10T09:01:06.623Z,12.50
2023-12-10T09:03:35.951Z,12.67
2023-12-10T09:06:03.724Z,8.90
2023-12-10T09:08:31.472Z,15.90
2023-12-10T09:10:58.965Z,12.80
2023-12-10T09:13:27.913Z,10.53
2023-12-10T09:15:57.740Z,9.53
2023-12-10T09:18:25.380Z,11.97
2023-12-10T09:20:54.251Z,7.10
2023-12-10T09:23:22.653Z,9.23
2023-12-10T09:25:50.222Z,10.43
2023-12-10T09:28:19.063Z,11.10
2023-12-10T09:30:46.642Z,10.67
2023-12-10T09:33:15.707Z,9.90
2023-12-10T09:35:43.248Z,8.77
2023-12-10T09:38:12.127Z,7.50
2023-12-10T09:40:40.249Z,8.40
2023-12-10T09:43:07.994Z,12.67
2023-12-10T09:45:35.496Z,11.60
2023-12-10T09:48:03.525Z,8.73
2023-12-10T09:50:32.595Z,10.90
2023-12-10T09:53:01.087Z,7.17
2023-12-10T09:55:29.988Z,6.60
2023-12-10T09:57:57.567Z,10.23
2023-12-10T10:00:26.099Z,10.67
2023-12-10T10:03:01.039Z,7.00
2023-12-10T10:05:28.612Z,13.07
2023-12-10T10:07:56.761Z,9.57
2023-12-10T10:10:26.557Z,7.90
2023-12-10T10:12:57.150Z,6.70
2023-12-10T10:15:29.612Z,7.83
2023-12-10T10:17:57.780Z,11.17
2023-12-10T10:20:26.162Z,8.77
2023-12-10T10:22:55.206Z,6.97
2023-12-10T10:25:23.929Z,5.77
2023-12-10T10:27:51.574Z,6.67
2023-12-10T10:30:20.507Z,7.03
2023-12-10T10:32:49.173Z,8.07
2023-12-10T10:35:16.707Z,8.20
2023-12-10T10:37:44.204Z,7.43
2023-12-10T10:40:13.609Z,5.73
2023-12-10T10:42:41.122Z,7.17
2023-12-10T10:45:10.185Z,7.67
2023-12-10T10:47:41.146Z,11.27
2023-12-10T10:50:21.702Z,5.30
2023-12-10T10:52:52.953Z,6.10
2023-12-10T10:55:20.537Z,7.53
2023-12-10T10:57:49.124Z,5.27
2023-12-10T11:00:35.540Z,3.33
2023-12-10T11:03:05.175Z,6.40
2023-12-10T11:05:33.136Z,6.43
2023-12-10T11:08:04.954Z,6.37
2023-12-10T11:10:32.460Z,6.53
2023-12-10T11:13:01.207Z,6.77
2023-12-10T11:15:29.614Z,4.50
2023-12-10T11:18:02.066Z,5.73
2023-12-10T11:20:34.149Z,3.50
2023-12-10T11:23:02.915Z,5.57
2023-12-10T11:25:31.376Z,6.43
2023-12-10T11:28:09.276Z,9.77
2023-12-10T11:30:37.441Z,3.90
2023-12-10T11:33:06.537Z,6.73
2023-12-10T11:35:35.404Z,9.90
2023-12-10T11:38:03.050Z,3.80
2023-12-10T11:40:30.777Z,4.87
2023-12-10T11:43:02.976Z,9.20
2023-12-10T11:45:31.555Z,6.70
2023-12-10T11:47:59.298Z,5.03
2023-12-10T11:50:26.789Z,6.53
2023-12-10T11:52:57.829Z,3.20
2023-12-10T11:55:25.343Z,7.10
2023-12-10T11:57:52.987Z,7.67
2023-12-10T12:00:20.674Z,3.90
2023-12-10T12:02:48.516Z,6.17
2023-12-10T12:05:17.923Z,7.33
2023-12-10T12:07:50.293Z,8.50
2023-12-10T12:10:19.829Z,8.00
2023-12-10T12:12:47.870Z,7.13
2023-12-10T12:15:16.525Z,9.47
2023-12-10T12:17:44.316Z,14.10
2023-12-10T12:20:15.610Z,6.60
2023-12-10T12:22:44.465Z,9.33
2023-12-10T12:25:13.347Z,8.37
2023-12-10T12:27:43.498Z,5.87
2023-12-10T12:30:11.253Z,11.20
2023-12-10T12:32:38.872Z,7.57
2023-12-10T12:35:06.564Z,6.33
2023-12-10T12:37:37.218Z,10.43
2023-12-10T12:40:05.748Z,7.83
2023-12-10T12:42:38.906Z,7.90
2023-12-10T12:45:08.600Z,5.47
2023-12-10T12:47:36.395Z,11.33
2023-12-10T12:50:04.133Z,7.03
2023-12-10T12:52:31.707Z,7.27
2023-12-10T12:54:59.253Z,5.77
2023-12-10T12:57:27.058Z,13.80
2023-12-10T12:59:54.755Z,9.20
2023-12-10T13:02:23.550Z,11.87
2023-12-10T13:04:51.073Z,8.87
2023-12-10T13:07:18.668Z,13.50
2023-12-10T13:09:46.176Z,10.70
2023-12-10T13:12:15.712Z,11.87
2023-12-10T13:14:44.204Z,5.67
2023-12-10T13:17:11.596Z,6.27
2023-12-10T13:19:41.662Z,8.17
2023-12-10T13:22:10.228Z,11.30
2023-12-10T13:24:38.907Z,8.13
2023-12-10T13:27:06.710Z,6.93
2023-12-10T13:29:34.326Z,4.97
2023-12-10T13:32:02.591Z,7.53
2023-12-10T13:34:30.184Z,13.47
2023-12-10T13:36:59.037Z,9.07
2023-12-10T13:39:26.518Z,5.93
2023-12-10T13:41:53.985Z,11.07
2023-12-10T13:44:21.749Z,12.67
2023-12-10T13:46:50.481Z,8.70
2023-12-10T13:49:18.009Z,6.90
2023-12-10T13:51:45.913Z,8.73
2023-12-10T13:54:15.044Z,9.10
2023-12-10T13:56:42.566Z,9.03
2023-12-10T13:59:09.980Z,8.70
2023-12-10T14:01:37.659Z,8.03
2023-12-10T14:04:05.610Z,9.37
2023-12-10T14:06:34.038Z,7.57
2023-12-10T14:09:01.163Z,7.90
2023-12-10T14:11:35.209Z,3.73
2023-12-10T14:14:08.397Z,3.77
2023-12-10T14:16:36.655Z,7.93
2023-12-10T14:19:04.989Z,8.83
2023-12-10T14:21:33.304Z,4.50
2023-12-10T14:24:00.934Z,8.13
2023-12-10T14:26:29.760Z,5.60
2023-12-10T14:28:58.977Z,6.93
2023-12-10T14:31:27.767Z,9.27
2023-12-10T14:33:55.700Z,7.63
2023-12-10T14:36:23.385Z,10.77
2023-12-10T14:38:50.941Z,5.60
2023-12-10T14:41:18.431Z,6.63
2023-12-10T14:43:47.143Z,9.70
2023-12-10T14:46:15.199Z,9.60
2023-12-10T14:48:43.948Z,7.70
2023-12-10T14:51:11.981Z,9.57
2023-12-10T14:53:39.396Z,5.83
2023-12-10T14:56:07.089Z,8.47
2023-12-10T14:58:34.548Z,12.20
2023-12-10T15:01:04.165Z,8.43
2023-12-10T15:03:32.678Z,8.67
2023-12-10T15:09:35.784Z,8.73
2023-12-10T15:12:04.285Z,6.97
2023-12-10T15:14:31.724Z,6.23
2023-12-10T15:17:00.514Z,5.67
2023-12-10T15:19:28.585Z,6.73
2023-12-10T15:21:56.960Z,4.17
2023-12-10T15:24:24.475Z,5.67
2023-12-10T15:26:52.749Z,7.60
2023-12-10T15:29:20.196Z,12.67
2023-12-10T15:31:47.600Z,7.80
2023-12-10T15:34:16.440Z,4.40
2023-12-10T15:36:43.978Z,11.50
2023-12-10T15:39:11.746Z,8.00
2023-12-10T15:41:40.958Z,5.07
2023-12-10T15:44:08.730Z,10.00
2023-12-10T15:46:36.574Z,8.17
2023-12-10T15:49:04.175Z,8.87
2023-12-10T15:51:33.050Z,5.90
2023-12-10T15:54:00.755Z,4.27
2023-12-10T15:56:28.916Z,5.67
2023-12-10T15:58:56.797Z,8.77
2023-12-10T16:01:24.627Z,13.33
2023-12-10T16:03:52.324Z,5.53
2023-12-10T16:06:20.151Z,7.30
2023-12-10T16:08:50.184Z,7.90
2023-12-10T16:11:17.949Z,7.43
2023-12-10T16:13:45.450Z,7.20
2023-12-10T16:16:13.311Z,5.83
2023-12-10T16:18:44.875Z,7.13
2023-12-10T16:21:13.721Z,12.20
2023-12-10T16:23:42.299Z,14.27
2023-12-10T16:26:11.333Z,7.27
2023-12-10T16:28:39.069Z,2.90
2023-12-10T16:31:07.315Z,7.23
2023-12-10T16:33:34.954Z,9.97
2023-12-10T16:36:03.052Z,11.77
2023-12-10T16:38:30.523Z,10.27
2023-12-10T16:40:58.041Z,10.83
2023-12-10T16:43:26.878Z,8.23
2023-12-10T16:45:54.762Z,12.00
2023-12-10T16:48:23.706Z,5.43
2023-12-10T16:50:51.352Z,10.97
2023-12-10T16:53:20.821Z,10.50
2023-12-10T16:55:50.117Z,6.77
2023-12-10T16:58:17.781Z,8.47
2023-12-10T17:00:49.507Z,10.90
2023-12-10T17:03:18.262Z,11.43
2023-12-10T17:05:45.766Z,9.77
2023-12-10T17:08:13.371Z,7.37
2023-12-10T17:10:41.904Z,9.07
2023-12-10T17:13:09.978Z,12.23
2023-12-10T17:15:37.653Z,13.00
2023-12-10T17:18:08.766Z,11.87
2023-12-10T17:20:36.331Z,8.73
2023-12-10T17:23:04.334Z,10.00
2023-12-10T17:25:32.722Z,12.80
2023-12-10T17:28:00.540Z,9.83
2023-12-10T17:30:28.057Z,8.37
2023-12-10T17:32:56.693Z,9.73
2023-12-10T17:35:25.622Z,14.47
2023-12-10T17:37:53.691Z,7.93
2023-12-10T17:40:22.154Z,13.20
2023-12-10T17:42:50.892Z,8.90
2023-12-10T17:45:20.761Z,8.33
2023-12-10T17:47:48.479Z,10.80
2023-12-10T17:50:17.448Z,7.10
2023-12-10T17:52:46.457Z,5.67
2023-12-10T17:55:15.366Z,10.97
2023-12-10T17:57:42.818Z,5.33
2023-12-10T18:00:11.618Z,11.27
2023-12-10T18:02:39.055Z,7.07
2023-12-10T18:05:06.828Z,9.50
2023-12-10T18:07:34.403Z,7.87
2023-12-10T18:10:04.758Z,10.20
2023-12-10T18:12:32.962Z,9.67
2023-12-10T18:15:00.507Z,12.13
2023-12-10T18:17:28.230Z,10.00
2023-12-10T18:19:55.909Z,5.80
2023-12-10T18:22:23.321Z,9.83
2023-12-10T18:24:50.827Z,7.37
2023-12-10T18:27:19.574Z,7.83
2023-12-10T18:29:46.966Z,4.70
2023-12-10T18:32:15.439Z,6.20
2023-12-10T18:34:44.537Z,11.00
2023-12-10T18:37:12.000Z,8.27
2023-12-10T18:39:42.460Z,9.90
2023-12-10T18:42:11.621Z,5.43
2023-12-10T18:44:40.755Z,11.10
2023-12-10T18:47:08.162Z,13.37
2023-12-10T18:49:36.127Z,7.27
2023-12-10T18:52:03.682Z,6.07
2023-12-10T18:54:31.781Z,10.60
2023-12-10T18:56:59.212Z,7.40
2023-12-10T18:59:26.581Z,10.30
2023-12-10T19:01:56.063Z,9.67
2023-12-10T19:04:25.014Z,9.37
2023-12-10T19:06:52.528Z,8.63
2023-12-10T19:09:20.713Z,5.43
2023-12-10T19:11:48.171Z,6.50
2023-12-10T19:14:16.044Z,6.53
2023-12-10T19:16:43.550Z,7.07
2023-12-10T19:19:13.444Z,7.77
2023-12-10T19:21:41.812Z,5.10
2023-12-10T19:24:09.248Z,6.07
2023-12-10T19:26:37.224Z,4.90
2023-12-10T19:29:08.262Z,9.53
2023-12-10T19:31:35.769Z,8.30
2023-12-10T19:34:03.610Z,9.33
2023-12-10T19:36:33.442Z,11.57
2023-12-10T19:39:01.720Z,7.20
2023-12-10T19:41:29.148Z,4.40
2023-12-10T19:43:57.153Z,9.73
2023-12-10T19:46:24.681Z,5.63
2023-12-10T19:48:52.528Z,5.77
2023-12-10T19:51:21.162Z,7.13
2023-12-10T19:53:49.983Z,5.23
2023-12-10T19:56:20.505Z,9.13
2023-12-10T19:58:48.035Z,7.70
2023-12-10T20:01:16.019Z,7.77
2023-12-10T20:03:43.926Z,6.30
2023-12-10T20:06:11.375Z,11.17
2023-12-10T20:08:39.856Z,10.57
2023-12-10T20:11:08.704Z,8.27
2023-12-10T20:13:37.758Z,14.00
2023-12-10T20:16:06.157Z,12.53
2023-12-10T20:18:34.457Z,17.77
2023-12-10T20:21:03.078Z,18.67
2023-12-10T20:23:31.116Z,14.57
2023-12-10T20:25:58.836Z,16.53
2023-12-10T20:28:29.317Z,18.23
2023-12-10T20:30:57.683Z,27.37
2023-12-10T20:33:25.468Z,16.77
2023-12-10T20:35:53.012Z,12.23
2023-12-10T20:38:20.500Z,10.70
2023-12-10T20:40:50.633Z,6.23
2023-12-10T20:43:19.611Z,7.70
2023-12-10T20:45:49.191Z,5.57
2023-12-10T20:48:17.233Z,10.27
2023-12-10T20:50:44.715Z,11.17
2023-12-10T20:53:12.640Z,8.90
2023-12-10T20:55:40.140Z,6.97
2023-12-10T20:58:11.228Z,9.20
2023-12-10T21:00:41.883Z,9.17
2023-12-10T21:03:13.304Z,9.20
2023-12-10T21:05:41.923Z,4.33
2023-12-10T21:08:09.521Z,9.57
2023-12-10T21:10:37.052Z,7.07
2023-12-10T21:13:05.552Z,8.97
2023-12-10T21:15:33.121Z,7.80
2023-12-10T21:18:02.106Z,7.97
2023-12-10T21:20:32.377Z,7.07
2023-12-10T21:22:59.931Z,5.23
2023-12-10T21:25:27.516Z,10.33
2023-12-10T21:27:55.481Z,5.50
2023-12-10T21:30:23.251Z,6.30
2023-12-10T21:32:50.669Z,6.13
2023-12-10T21:35:19.140Z,8.03
2023-12-10T21:37:47.850Z,9.80
2023-12-10T21:40:15.510Z,12.03
2023-12-10T21:42:43.055Z,7.57
2023-12-10T21:45:11.413Z,4.53
2023-12-10T21:47:38.984Z,7.40
2023-12-10T21:50:07.382Z,3.57
2023-12-10T21:52:34.832Z,3.80
2023-12-10T21:55:03.629Z,3.33
2023-12-10T21:57:31.331Z,4.20
2023-12-10T21:59:59.224Z,6.43
2023-12-10T22:02:27.431Z,5.57
2023-12-10T22:04:54.865Z,2.17
2023-12-10T22:07:23.523Z,4.00
2023-12-10T22:09:51.166Z,8.17
2023-12-10T22:12:20.642Z,2.77
2023-12-10T22:14:47.119Z,3.60
2023-12-10T22:17:15.629Z,9.33
2023-12-10T22:19:44.165Z,2.93
2023-12-10T22:22:12.225Z,5.17
2023-12-10T22:24:39.657Z,3.93
2023-12-10T22:27:07.079Z,8.07
2023-12-10T22:29:35.803Z,5.63
2023-12-10T22:32:03.282Z,6.17
2023-12-10T22:34:30.813Z,4.87
2023-12-10T22:36:58.339Z,4.00
2023-12-10T22:39:25.790Z,3.73
2023-12-10T22:41:53.221Z,5.00
2023-12-10T22:44:20.671Z,3.77
2023-12-10T22:46:49.693Z,2.93
2023-12-10T22:49:17.690Z,3.50
2023-12-10T22:51:45.266Z,1.73
2023-12-10T22:54:13.160Z,2.50
2023-12-10T22:56:40.563Z,4.17
2023-12-10T22:59:09.132Z,2.67
2023-12-10T23:01:38.792Z,3.60
2023-12-10T23:04:11.163Z,2.43
2023-12-10T23:06:41.607Z,5.33
2023-12-10T23:09:10.136Z,1.60
2023-12-10T23:11:43.252Z,2.43
2023-12-10T23:14:10.715Z,5.30
2023-12-10T23:16:39.825Z,2.57
2023-12-10T23:19:08.420Z,3.73
2023-12-10T23:21:41.677Z,4.27
2023-12-10T23:24:09.366Z,3.27
2023-12-10T23:26:37.703Z,5.50
2023-12-10T23:29:05.737Z,4.73
2023-12-10T23:31:35.238Z,4.77
2023-12-10T23:34:05.954Z,5.33
2023-12-10T23:36:34.167Z,4.17
2023-12-10T23:39:02.957Z,5.20
2023-12-10T23:41:31.073Z,4.80
2023-12-10T23:43:58.940Z,3.37
2023-12-10T23:46:26.351Z,3.83
2023-12-10T23:48:54.555Z,3.53
2023-12-10T23:51:22.389Z,2.67
2023-12-10T23:53:51.962Z,4.57
2023-12-10T23:56:21.797Z,3.30
2023-12-10T23:58:49.292Z,4.87
